sensor_id;sensor_type;location;lat;lon;timestamp;P1;durP1;ratioP1;P2;durP2;ratioP2
21418;SDS011;10870;51.384;10.316;2023-02-11T00:01:33;64.70;;;37.47;;
21418;SDS011;10870;51.384;10.316;2023-02-11T00:03:35;69.88;;;37.05;;
21418;SDS011;10870;51.384;10.316;2023-02-11T00:05:38;72.05;;;40.17;;
21418;SDS011;10870;51.384;10.316;2023-02-11T00:07:39;67.97;;;38.75;;
21418;SDS011;10870;51.384;10.316;2023-02-11T00:09:43;70.07;;;38.70;;
21418;SDS011;10870;51.384;10.316;2023-02-11T00:11:44;72.47;;;38.63;;
21418;SDS011;10870;51.384;10.316;2023-02-11T00:13:48;74.05;;;41.38;;
21418;SDS011;10870;51.384;10.316;2023-02-11T00:15:52;69.95;;;39.20;;
21418;SDS011;10870;51.384;10.316;2023-02-11T00:17:54;77.65;;;40.10;;
21418;SDS011;10870;51.384;10.316;2023-02-11T00:19:58;75.93;;;39.20;;
21418;SDS011;10870;51.384;10.316;2023-02-11T00:22:02;69.05;;;37.83;;
21418;SDS011;10870;51.384;10.316;2023-02-11T00:24:10;74.63;;;38.40;;
21418;SDS011;10870;51.384;10.316;2023-02-11T00:26:12;67.00;;;38.95;;
21418;SDS011;10870;51.384;10.316;2023-02-11T00:28:14;64.35;;;38.08;;
21418;SDS011;10870;51.384;10.316;2023-02-11T00:30:18;67.47;;;37.70;;
21418;SDS011;10870;51.384;10.316;2023-02-11T00:32:22;67.65;;;38.55;;
21418;SDS011;10870;51.384;10.316;2023-02-11T00:34:26;70.50;;;37.50;;
21418;SDS011;10870;51.384;10.316;2023-02-11T00:36:28;66.75;;;39.28;;
21418;SDS011;10870;51.384;10.316;2023-02-11T00:38:32;67.97;;;38.47;;
21418;SDS011;10870;51.384;10.316;2023-02-11T00:40:34;70.50;;;38.50;;
21418;SDS011;10870;51.384;10.316;2023-02-11T00:42:35;72.22;;;40.45;;
21418;SDS011;10870;51.384;10.316;2023-02-11T00:44:37;66.68;;;36.53;;
21418;SDS011;10870;51.384;10.316;2023-02-11T00:46:41;68.72;;;39.50;;
21418;SDS011;10870;51.384;10.316;2023-02-11T00:48:43;65.40;;;38.15;;
21418;SDS011;10870;51.384;10.316;2023-02-11T00:50:44;69.63;;;38.42;;
21418;SDS011;10870;51.384;10.316;2023-02-11T00:52:46;66.70;;;37.25;;
21418;SDS011;10870;51.384;10.316;2023-02-11T00:54:51;68.05;;;37.85;;
21418;SDS011;10870;51.384;10.316;2023-02-11T00:56:55;67.50;;;37.88;;
21418;SDS011;10870;51.384;10.316;2023-02-11T00:58:56;79.88;;;38.47;;
21418;SDS011;10870;51.384;10.316;2023-02-11T01:00:58;70.45;;;38.15;;
21418;SDS011;10870;51.384;10.316;2023-02-11T01:03:02;73.93;;;39.40;;
21418;SDS011;10870;51.384;10.316;2023-02-11T01:05:06;65.57;;;36.03;;
21418;SDS011;10870;51.384;10.316;2023-02-11T01:07:12;65.97;;;37.55;;
21418;SDS011;10870;51.384;10.316;2023-02-11T01:09:14;69.82;;;37.75;;
21418;SDS011;10870;51.384;10.316;2023-02-11T01:11:19;68.50;;;37.97;;
21418;SDS011;10870;51.384;10.316;2023-02-11T01:13:20;69.20;;;37.65;;
21418;SDS011;10870;51.384;10.316;2023-02-11T01:15:22;67.03;;;37.53;;
21418;SDS011;10870;51.384;10.316;2023-02-11T01:17:24;70.53;;;37.70;;
21418;SDS011;10870;51.384;10.316;2023-02-11T01:19:25;67.80;;;37.88;;
21418;SDS011;10870;51.384;10.316;2023-02-11T01:21:28;60.28;;;33.10;;
21418;SDS011;10870;51.384;10.316;2023-02-11T01:23:29;68.88;;;36.15;;
21418;SDS011;10870;51.384;10.316;2023-02-11T01:25:30;70.50;;;38.00;;
21418;SDS011;10870;51.384;10.316;2023-02-11T01:27:37;65.07;;;35.53;;
21418;SDS011;10870;51.384;10.316;2023-02-11T01:29:38;63.78;;;36.60;;
21418;SDS011;10870;51.384;10.316;2023-02-11T01:31:43;66.72;;;38.53;;
21418;SDS011;10870;51.384;10.316;2023-02-11T01:33:44;71.18;;;38.17;;
21418;SDS011;10870;51.384;10.316;2023-02-11T01:35:46;67.25;;;36.15;;
21418;SDS011;10870;51.384;10.316;2023-02-11T01:37:47;62.05;;;38.75;;
21418;SDS011;10870;51.384;10.316;2023-02-11T01:39:49;70.63;;;37.80;;
21418;SDS011;10870;51.384;10.316;2023-02-11T01:41:53;65.85;;;38.08;;
21418;SDS011;10870;51.384;10.316;2023-02-11T01:43:54;72.53;;;38.58;;
21418;SDS011;10870;51.384;10.316;2023-02-11T01:46:41;67.40;;;36.15;;
21418;SDS011;10870;51.384;10.316;2023-02-11T01:48:22;67.65;;;38.33;;
21418;SDS011;10870;51.384;10.316;2023-02-11T01:50:25;69.20;;;36.90;;
21418;SDS011;10870;51.384;10.316;2023-02-11T01:52:36;71.15;;;39.05;;
21418;SDS011;10870;51.384;10.316;2023-02-11T01:54:41;73.68;;;39.05;;
21418;SDS011;10870;51.384;10.316;2023-02-11T01:57:02;69.30;;;38.53;;
21418;SDS011;10870;51.384;10.316;2023-02-11T01:59:31;66.93;;;37.80;;
21418;SDS011;10870;51.384;10.316;2023-02-11T02:01:33;73.53;;;38.50;;
21418;SDS011;10870;51.384;10.316;2023-02-11T02:03:35;69.10;;;38.03;;
21418;SDS011;10870;51.384;10.316;2023-02-11T02:10:03;69.32;;;36.22;;
21418;SDS011;10870;51.384;10.316;2023-02-11T02:12:05;66.18;;;33.65;;
21418;SDS011;10870;51.384;10.316;2023-02-11T02:14:06;73.05;;;36.53;;
21418;SDS011;10870;51.384;10.316;2023-02-11T02:16:11;68.45;;;32.88;;
21418;SDS011;10870;51.384;10.316;2023-02-11T02:33:30;73.93;;;36.58;;
21418;SDS011;10870;51.384;10.316;2023-02-11T02:35:46;70.38;;;38.60;;
21418;SDS011;10870;51.384;10.316;2023-02-11T02:38:07;70.38;;;38.20;;
21418;SDS011;10870;51.384;10.316;2023-02-11T02:40:16;65.05;;;35.38;;
21418;SDS011;10870;51.384;10.316;2023-02-11T02:42:19;63.70;;;33.47;;
21418;SDS011;10870;51.384;10.316;2023-02-11T02:44:21;72.85;;;39.03;;
21418;SDS011;10870;51.384;10.316;2023-02-11T02:46:30;73.53;;;38.42;;
21418;SDS011;10870;51.384;10.316;2023-02-11T02:48:33;72.72;;;38.90;;
21418;SDS011;10870;51.384;10.316;2023-02-11T02:50:37;71.43;;;36.53;;
21418;SDS011;10870;51.384;10.316;2023-02-11T02:55:06;74.53;;;38.38;;
21418;SDS011;10870;51.384;10.316;2023-02-11T03:01:53;74.05;;;35.45;;
21418;SDS011;10870;51.384;10.316;2023-02-11T03:04:00;68.22;;;36.45;;
21418;SDS011;10870;51.384;10.316;2023-02-11T03:06:07;82.00;;;39.25;;
21418;SDS011;10870;51.384;10.316;2023-02-11T03:08:14;78.38;;;38.08;;
21418;SDS011;10870;51.384;10.316;2023-02-11T03:10:39;79.95;;;39.90;;
21418;SDS011;10870;51.384;10.316;2023-02-11T03:12:38;74.78;;;38.72;;
21418;SDS011;10870;51.384;10.316;2023-02-11T03:14:44;71.40;;;37.83;;
21418;SDS011;10870;51.384;10.316;2023-02-11T03:16:49;72.57;;;38.22;;
21418;SDS011;10870;51.384;10.316;2023-02-11T03:19:20;67.95;;;37.10;;
21418;SDS011;10870;51.384;10.316;2023-02-11T03:21:22;81.65;;;38.00;;
21418;SDS011;10870;51.384;10.316;2023-02-11T03:23:32;75.13;;;38.13;;
21418;SDS011;10870;51.384;10.316;2023-02-11T03:25:36;71.03;;;36.45;;
21418;SDS011;10870;51.384;10.316;2023-02-11T03:27:40;74.03;;;37.00;;
21418;SDS011;10870;51.384;10.316;2023-02-11T03:32:08;72.68;;;37.00;;
21418;SDS011;10870;51.384;10.316;2023-02-11T03:34:18;75.05;;;37.88;;
21418;SDS011;10870;51.384;10.316;2023-02-11T03:36:23;74.75;;;38.88;;
21418;SDS011;10870;51.384;10.316;2023-02-11T03:38:37;73.53;;;39.03;;
21418;SDS011;10870;51.384;10.316;2023-02-11T03:40:42;68.90;;;37.40;;
21418;SDS011;10870;51.384;10.316;2023-02-11T03:44:52;71.88;;;34.65;;
21418;SDS011;10870;51.384;10.316;2023-02-11T03:46:58;78.05;;;38.05;;
21418;SDS011;10870;51.384;10.316;2023-02-11T03:49:02;67.18;;;37.38;;
21418;SDS011;10870;51.384;10.316;2023-02-11T03:51:09;69.35;;;34.40;;
21418;SDS011;10870;51.384;10.316;2023-02-11T03:53:11;68.82;;;36.78;;
21418;SDS011;10870;51.384;10.316;2023-02-11T03:55:15;69.53;;;35.15;;
21418;SDS011;10870;51.384;10.316;2023-02-11T03:57:17;69.10;;;35.47;;
21418;SDS011;10870;51.384;10.316;2023-02-11T03:59:18;74.82;;;35.95;;
21418;SDS011;10870;51.384;10.316;2023-02-11T04:01:20;74.97;;;36.25;;
21418;SDS011;10870;51.384;10.316;2023-02-11T04:03:21;65.97;;;34.00;;
21418;SDS011;10870;51.384;10.316;2023-02-11T04:05:25;70.47;;;36.63;;
21418;SDS011;10870;51.384;10.316;2023-02-11T04:07:26;58.85;;;29.38;;
21418;SDS011;10870;51.384;10.316;2023-02-11T04:09:28;66.93;;;33.15;;
21418;SDS011;10870;51.384;10.316;2023-02-11T04:11:32;70.57;;;35.65;;
21418;SDS011;10870;51.384;10.316;2023-02-11T04:13:33;61.42;;;30.48;;
21418;SDS011;10870;51.384;10.316;2023-02-11T04:15:37;61.08;;;33.53;;
21418;SDS011;10870;51.384;10.316;2023-02-11T04:17:43;60.42;;;33.90;;
21418;SDS011;10870;51.384;10.316;2023-02-11T04:19:44;63.38;;;33.10;;
21418;SDS011;10870;51.384;10.316;2023-02-11T04:21:48;64.35;;;34.67;;
21418;SDS011;10870;51.384;10.316;2023-02-11T04:23:50;62.75;;;34.08;;
21418;SDS011;10870;51.384;10.316;2023-02-11T04:25:51;62.63;;;32.88;;
21418;SDS011;10870;51.384;10.316;2023-02-11T04:27:52;63.15;;;35.50;;
21418;SDS011;10870;51.384;10.316;2023-02-11T04:29:56;63.78;;;32.08;;
21418;SDS011;10870;51.384;10.316;2023-02-11T04:32:00;62.22;;;30.15;;
21418;SDS011;10870;51.384;10.316;2023-02-11T04:34:04;59.28;;;30.52;;
21418;SDS011;10870;51.384;10.316;2023-02-11T04:36:08;62.17;;;34.47;;
21418;SDS011;10870;51.384;10.316;2023-02-11T04:38:12;64.07;;;34.00;;
21418;SDS011;10870;51.384;10.316;2023-02-11T04:40:13;64.53;;;34.67;;
21418;SDS011;10870;51.384;10.316;2023-02-11T04:42:17;62.38;;;31.20;;
21418;SDS011;10870;51.384;10.316;2023-02-11T04:44:18;62.90;;;32.25;;
21418;SDS011;10870;51.384;10.316;2023-02-11T04:46:22;66.03;;;34.17;;
21418;SDS011;10870;51.384;10.316;2023-02-11T04:48:24;57.95;;;30.50;;
21418;SDS011;10870;51.384;10.316;2023-02-11T04:50:30;59.17;;;32.88;;
21418;SDS011;10870;51.384;10.316;2023-02-11T04:52:31;67.00;;;33.00;;
21418;SDS011;10870;51.384;10.316;2023-02-11T04:54:33;58.05;;;31.70;;
21418;SDS011;10870;51.384;10.316;2023-02-11T04:56:34;58.10;;;32.97;;
21418;SDS011;10870;51.384;10.316;2023-02-11T04:58:38;59.95;;;30.48;;
21418;SDS011;10870;51.384;10.316;2023-02-11T05:00:39;54.78;;;30.17;;
21418;SDS011;10870;51.384;10.316;2023-02-11T05:02:40;57.35;;;30.42;;
21418;SDS011;10870;51.384;10.316;2023-02-11T05:04:42;53.40;;;27.88;;
21418;SDS011;10870;51.384;10.316;2023-02-11T05:06:43;54.42;;;31.35;;
21418;SDS011;10870;51.384;10.316;2023-02-11T05:08:46;57.28;;;31.30;;
21418;SDS011;10870;51.384;10.316;2023-02-11T05:10:48;64.70;;;31.63;;
21418;SDS011;10870;51.384;10.316;2023-02-11T05:12:51;60.97;;;31.60;;
21418;SDS011;10870;51.384;10.316;2023-02-11T05:14:55;59.55;;;31.30;;
21418;SDS011;10870;51.384;10.316;2023-02-11T05:16:57;62.17;;;33.28;;
21418;SDS011;10870;51.384;10.316;2023-02-11T05:18:58;57.85;;;31.98;;
21418;SDS011;10870;51.384;10.316;2023-02-11T05:21:11;66.43;;;32.97;;
21418;SDS011;10870;51.384;10.316;2023-02-11T05:23:13;63.25;;;30.75;;
21418;SDS011;10870;51.384;10.316;2023-02-11T05:25:14;59.17;;;32.17;;
21418;SDS011;10870;51.384;10.316;2023-02-11T05:27:19;62.50;;;33.53;;
21418;SDS011;10870;51.384;10.316;2023-02-11T05:29:20;54.58;;;31.58;;
21418;SDS011;10870;51.384;10.316;2023-02-11T05:31:24;61.33;;;32.55;;
21418;SDS011;10870;51.384;10.316;2023-02-11T05:33:26;61.50;;;32.25;;
21418;SDS011;10870;51.384;10.316;2023-02-11T05:35:27;56.55;;;32.15;;
21418;SDS011;10870;51.384;10.316;2023-02-11T05:37:28;56.67;;;31.73;;
21418;SDS011;10870;51.384;10.316;2023-02-11T05:39:30;61.67;;;33.50;;
21418;SDS011;10870;51.384;10.316;2023-02-11T05:41:35;56.38;;;31.25;;
21418;SDS011;10870;51.384;10.316;2023-02-11T05:43:37;58.95;;;31.40;;
21418;SDS011;10870;51.384;10.316;2023-02-11T05:45:39;57.55;;;31.08;;
21418;SDS011;10870;51.384;10.316;2023-02-11T05:47:40;63.67;;;32.33;;
21418;SDS011;10870;51.384;10.316;2023-02-11T05:49:44;62.83;;;33.42;;
21418;SDS011;10870;51.384;10.316;2023-02-11T05:51:48;61.13;;;32.80;;
21418;SDS011;10870;51.384;10.316;2023-02-11T05:53:49;66.00;;;34.83;;
21418;SDS011;10870;51.384;10.316;2023-02-11T05:55:53;58.75;;;31.77;;
21418;SDS011;10870;51.384;10.316;2023-02-11T05:57:57;63.90;;;33.10;;
21418;SDS011;10870;51.384;10.316;2023-02-11T05:59:58;63.08;;;33.10;;
21418;SDS011;10870;51.384;10.316;2023-02-11T06:02:02;66.55;;;34.40;;
21418;SDS011;10870;51.384;10.316;2023-02-11T06:04:04;63.58;;;33.60;;
21418;SDS011;10870;51.384;10.316;2023-02-11T06:06:08;63.92;;;33.83;;
21418;SDS011;10870;51.384;10.316;2023-02-11T06:08:10;64.20;;;33.30;;
21418;SDS011;10870;51.384;10.316;2023-02-11T06:10:12;68.68;;;33.35;;
21418;SDS011;10870;51.384;10.316;2023-02-11T06:12:13;62.85;;;34.05;;
21418;SDS011;10870;51.384;10.316;2023-02-11T06:14:22;61.55;;;33.28;;
21418;SDS011;10870;51.384;10.316;2023-02-11T06:16:26;62.47;;;35.00;;
21418;SDS011;10870;51.384;10.316;2023-02-11T06:18:29;61.85;;;33.78;;
21418;SDS011;10870;51.384;10.316;2023-02-11T06:20:32;72.18;;;33.45;;
21418;SDS011;10870;51.384;10.316;2023-02-11T06:22:36;68.93;;;34.40;;
21418;SDS011;10870;51.384;10.316;2023-02-11T06:24:40;68.45;;;33.08;;
21418;SDS011;10870;51.384;10.316;2023-02-11T06:26:41;62.60;;;36.05;;
21418;SDS011;10870;51.384;10.316;2023-02-11T06:28:43;70.57;;;37.63;;
21418;SDS011;10870;51.384;10.316;2023-02-11T06:30:44;69.68;;;35.05;;
21418;SDS011;10870;51.384;10.316;2023-02-11T06:32:48;73.20;;;38.03;;
21418;SDS011;10870;51.384;10.316;2023-02-11T06:34:50;76.40;;;36.28;;
21418;SDS011;10870;51.384;10.316;2023-02-11T06:36:52;70.15;;;35.88;;
21418;SDS011;10870;51.384;10.316;2023-02-11T06:38:53;68.32;;;38.85;;
21418;SDS011;10870;51.384;10.316;2023-02-11T06:40:57;71.47;;;35.90;;
21418;SDS011;10870;51.384;10.316;2023-02-11T06:42:59;67.68;;;38.00;;
21418;SDS011;10870;51.384;10.316;2023-02-11T06:45:00;80.57;;;40.85;;
21418;SDS011;10870;51.384;10.316;2023-02-11T06:47:01;73.50;;;36.30;;
21418;SDS011;10870;51.384;10.316;2023-02-11T06:49:03;72.88;;;39.42;;
21418;SDS011;10870;51.384;10.316;2023-02-11T06:51:05;82.07;;;40.53;;
21418;SDS011;10870;51.384;10.316;2023-02-11T06:53:09;79.05;;;42.40;;
21418;SDS011;10870;51.384;10.316;2023-02-11T06:55:10;79.72;;;39.60;;
21418;SDS011;10870;51.384;10.316;2023-02-11T06:57:12;81.45;;;41.83;;
21418;SDS011;10870;51.384;10.316;2023-02-11T06:59:17;82.40;;;40.90;;
21418;SDS011;10870;51.384;10.316;2023-02-11T07:01:21;78.35;;;41.65;;
21418;SDS011;10870;51.384;10.316;2023-02-11T07:03:23;77.80;;;37.42;;
21418;SDS011;10870;51.384;10.316;2023-02-11T07:05:24;77.72;;;38.20;;
21418;SDS011;10870;51.384;10.316;2023-02-11T07:07:30;78.07;;;41.22;;
21418;SDS011;10870;51.384;10.316;2023-02-11T07:09:32;73.43;;;38.08;;
21418;SDS011;10870;51.384;10.316;2023-02-11T07:11:35;82.30;;;38.97;;
21418;SDS011;10870;51.384;10.316;2023-02-11T07:13:37;77.43;;;37.22;;
21418;SDS011;10870;51.384;10.316;2023-02-11T07:15:38;76.32;;;37.88;;
21418;SDS011;10870;51.384;10.316;2023-02-11T07:17:44;74.20;;;37.22;;
21418;SDS011;10870;51.384;10.316;2023-02-11T07:19:45;78.20;;;39.45;;
21418;SDS011;10870;51.384;10.316;2023-02-11T07:21:47;68.38;;;34.92;;
21418;SDS011;10870;51.384;10.316;2023-02-11T07:23:48;72.40;;;37.72;;
21418;SDS011;10870;51.384;10.316;2023-02-11T07:25:52;71.82;;;39.40;;
21418;SDS011;10870;51.384;10.316;2023-02-11T07:27:56;69.70;;;36.42;;
21418;SDS011;10870;51.384;10.316;2023-02-11T07:29:57;74.03;;;37.53;;
21418;SDS011;10870;51.384;10.316;2023-02-11T07:31:59;77.03;;;39.40;;
21418;SDS011;10870;51.384;10.316;2023-02-11T07:34:00;86.65;;;42.17;;
21418;SDS011;10870;51.384;10.316;2023-02-11T07:36:05;78.63;;;38.55;;
21418;SDS011;10870;51.384;10.316;2023-02-11T07:38:10;76.65;;;38.25;;
21418;SDS011;10870;51.384;10.316;2023-02-11T07:40:11;73.15;;;38.88;;
21418;SDS011;10870;51.384;10.316;2023-02-11T07:42:13;65.80;;;34.28;;
21418;SDS011;10870;51.384;10.316;2023-02-11T07:44:14;73.30;;;37.17;;
21418;SDS011;10870;51.384;10.316;2023-02-11T07:46:17;73.07;;;36.50;;
21418;SDS011;10870;51.384;10.316;2023-02-11T07:48:21;81.95;;;42.55;;
21418;SDS011;10870;51.384;10.316;2023-02-11T07:50:22;76.53;;;38.83;;
21418;SDS011;10870;51.384;10.316;2023-02-11T07:52:24;74.30;;;40.40;;
21418;SDS011;10870;51.384;10.316;2023-02-11T07:54:28;82.22;;;41.50;;
21418;SDS011;10870;51.384;10.316;2023-02-11T07:56:33;82.38;;;39.30;;
21418;SDS011;10870;51.384;10.316;2023-02-11T07:58:35;83.25;;;41.08;;
21418;SDS011;10870;51.384;10.316;2023-02-11T08:00:36;74.60;;;39.42;;
21418;SDS011;10870;51.384;10.316;2023-02-11T08:02:44;73.45;;;38.90;;
21418;SDS011;10870;51.384;10.316;2023-02-11T08:04:46;70.88;;;34.92;;
21418;SDS011;10870;51.384;10.316;2023-02-11T08:06:47;82.70;;;42.10;;
21418;SDS011;10870;51.384;10.316;2023-02-11T08:08:51;73.10;;;36.65;;
21418;SDS011;10870;51.384;10.316;2023-02-11T08:10:55;74.32;;;36.15;;
21418;SDS011;10870;51.384;10.316;2023-02-11T08:12:59;76.38;;;37.42;;
21418;SDS011;10870;51.384;10.316;2023-02-11T08:15:00;73.22;;;36.25;;
21418;SDS011;10870;51.384;10.316;2023-02-11T08:17:02;75.20;;;39.53;;
21418;SDS011;10870;51.384;10.316;2023-02-11T08:19:05;67.78;;;35.38;;
21418;SDS011;10870;51.384;10.316;2023-02-11T08:21:07;69.32;;;37.15;;
21418;SDS011;10870;51.384;10.316;2023-02-11T08:23:09;72.50;;;37.13;;
21418;SDS011;10870;51.384;10.316;2023-02-11T08:25:13;71.32;;;32.33;;
21418;SDS011;10870;51.384;10.316;2023-02-11T08:27:15;67.65;;;35.63;;
21418;SDS011;10870;51.384;10.316;2023-02-11T08:29:21;65.70;;;36.60;;
21418;SDS011;10870;51.384;10.316;2023-02-11T08:31:26;62.90;;;32.35;;
21418;SDS011;10870;51.384;10.316;2023-02-11T08:33:32;59.08;;;32.38;;
21418;SDS011;10870;51.384;10.316;2023-02-11T08:35:34;74.10;;;37.67;;
21418;SDS011;10870;51.384;10.316;2023-02-11T08:37:36;62.88;;;32.55;;
21418;SDS011;10870;51.384;10.316;2023-02-11T08:39:38;64.88;;;33.00;;
21418;SDS011;10870;51.384;10.316;2023-02-11T08:41:39;73.20;;;37.40;;
21418;SDS011;10870;51.384;10.316;2023-02-11T08:43:41;59.42;;;33.47;;
21418;SDS011;10870;51.384;10.316;2023-02-11T08:45:43;61.35;;;32.65;;
21418;SDS011;10870;51.384;10.316;2023-02-11T08:47:45;59.55;;;32.03;;
21418;SDS011;10870;51.384;10.316;2023-02-11T08:49:48;67.40;;;36.17;;
21418;SDS011;10870;51.384;10.316;2023-02-11T08:51:52;62.83;;;32.53;;
21418;SDS011;10870;51.384;10.316;2023-02-11T08:54:01;66.28;;;34.22;;
21418;SDS011;10870;51.384;10.316;2023-02-11T08:56:05;53.13;;;28.20;;
21418;SDS011;10870;51.384;10.316;2023-02-11T08:58:06;63.20;;;33.53;;
21418;SDS011;10870;51.384;10.316;2023-02-11T09:00:11;58.83;;;33.88;;
21418;SDS011;10870;51.384;10.316;2023-02-11T09:02:13;57.50;;;30.10;;
21418;SDS011;10870;51.384;10.316;2023-02-11T09:04:17;46.72;;;25.15;;
21418;SDS011;10870;51.384;10.316;2023-02-11T09:06:19;56.08;;;31.20;;
21418;SDS011;10870;51.384;10.316;2023-02-11T09:08:21;56.42;;;32.40;;
21418;SDS011;10870;51.384;10.316;2023-02-11T09:10:23;50.83;;;27.80;;
21418;SDS011;10870;51.384;10.316;2023-02-11T09:12:26;57.53;;;31.00;;
21418;SDS011;10870;51.384;10.316;2023-02-11T09:14:28;54.67;;;29.02;;
21418;SDS011;10870;51.384;10.316;2023-02-11T09:16:32;50.15;;;28.33;;
21418;SDS011;10870;51.384;10.316;2023-02-11T09:18:34;53.53;;;28.00;;
21418;SDS011;10870;51.384;10.316;2023-02-11T09:20:35;49.80;;;27.63;;
21418;SDS011;10870;51.384;10.316;2023-02-11T09:22:37;54.85;;;29.08;;
21418;SDS011;10870;51.384;10.316;2023-02-11T09:24:38;49.45;;;27.75;;
21418;SDS011;10870;51.384;10.316;2023-02-11T09:26:42;48.38;;;25.83;;
21418;SDS011;10870;51.384;10.316;2023-02-11T09:28:43;54.17;;;27.48;;
21418;SDS011;10870;51.384;10.316;2023-02-11T09:30:45;49.20;;;25.27;;
21418;SDS011;10870;51.384;10.316;2023-02-11T09:32:46;49.72;;;28.63;;
21418;SDS011;10870;51.384;10.316;2023-02-11T09:34:48;54.55;;;28.85;;
21418;SDS011;10870;51.384;10.316;2023-02-11T09:36:52;49.75;;;27.50;;
21418;SDS011;10870;51.384;10.316;2023-02-11T09:38:54;51.15;;;28.50;;
21418;SDS011;10870;51.384;10.316;2023-02-11T09:40:59;49.80;;;26.50;;
21418;SDS011;10870;51.384;10.316;2023-02-11T09:43:16;59.90;;;27.97;;
21418;SDS011;10870;51.384;10.316;2023-02-11T09:45:26;51.85;;;26.73;;
21418;SDS011;10870;51.384;10.316;2023-02-11T09:47:33;52.50;;;27.88;;
21418;SDS011;10870;51.384;10.316;2023-02-11T09:49:42;51.70;;;26.60;;
21418;SDS011;10870;51.384;10.316;2023-02-11T09:51:50;47.40;;;27.25;;
21418;SDS011;10870;51.384;10.316;2023-02-11T09:53:55;52.30;;;27.17;;
21418;SDS011;10870;51.384;10.316;2023-02-11T09:55:59;49.08;;;27.52;;
21418;SDS011;10870;51.384;10.316;2023-02-11T09:58:01;52.95;;;28.13;;
21418;SDS011;10870;51.384;10.316;2023-02-11T10:02:56;51.67;;;30.25;;
21418;SDS011;10870;51.384;10.316;2023-02-11T10:06:59;53.70;;;31.20;;
21418;SDS011;10870;51.384;10.316;2023-02-11T10:18:45;52.25;;;27.52;;
21418;SDS011;10870;51.384;10.316;2023-02-11T10:22:24;53.78;;;29.52;;
21418;SDS011;10870;51.384;10.316;2023-02-11T10:24:28;52.83;;;27.48;;
21418;SDS011;10870;51.384;10.316;2023-02-11T10:26:30;55.88;;;29.67;;
21418;SDS011;10870;51.384;10.316;2023-02-11T10:28:33;48.30;;;27.08;;
21418;SDS011;10870;51.384;10.316;2023-02-11T10:30:36;43.88;;;25.48;;
21418;SDS011;10870;51.384;10.316;2023-02-11T10:32:44;52.22;;;27.83;;
21418;SDS011;10870;51.384;10.316;2023-02-11T10:34:46;50.22;;;28.77;;
21418;SDS011;10870;51.384;10.316;2023-02-11T10:36:48;48.42;;;28.27;;
21418;SDS011;10870;51.384;10.316;2023-02-11T10:38:49;49.42;;;26.80;;
21418;SDS011;10870;51.384;10.316;2023-02-11T10:40:53;46.75;;;24.83;;
21418;SDS011;10870;51.384;10.316;2023-02-11T10:42:56;47.78;;;26.65;;
21418;SDS011;10870;51.384;10.316;2023-02-11T10:45:03;47.78;;;27.63;;
21418;SDS011;10870;51.384;10.316;2023-02-11T10:47:10;50.10;;;28.63;;
21418;SDS011;10870;51.384;10.316;2023-02-11T10:49:55;47.78;;;26.45;;
21418;SDS011;10870;51.384;10.316;2023-02-11T10:51:51;36.92;;;20.55;;
21418;SDS011;10870;51.384;10.316;2023-02-11T10:54:17;48.10;;;26.52;;
21418;SDS011;10870;51.384;10.316;2023-02-11T10:56:25;43.15;;;25.17;;
21418;SDS011;10870;51.384;10.316;2023-02-11T10:58:45;43.55;;;21.88;;
21418;SDS011;10870;51.384;10.316;2023-02-11T11:00:50;42.25;;;23.05;;
21418;SDS011;10870;51.384;10.316;2023-02-11T11:02:56;41.42;;;24.33;;
21418;SDS011;10870;51.384;10.316;2023-02-11T11:05:02;36.85;;;22.20;;
21418;SDS011;10870;51.384;10.316;2023-02-11T11:09:26;38.93;;;20.80;;
21418;SDS011;10870;51.384;10.316;2023-02-11T11:11:29;43.72;;;25.10;;
21418;SDS011;10870;51.384;10.316;2023-02-11T11:13:34;39.72;;;22.13;;
21418;SDS011;10870;51.384;10.316;2023-02-11T11:15:38;41.15;;;23.80;;
21418;SDS011;10870;51.384;10.316;2023-02-11T11:17:42;39.20;;;24.52;;
21418;SDS011;10870;51.384;10.316;2023-02-11T11:19:43;44.75;;;23.83;;
21418;SDS011;10870;51.384;10.316;2023-02-11T11:21:52;43.75;;;24.30;;
21418;SDS011;10870;51.384;10.316;2023-02-11T11:28:04;44.08;;;24.02;;
21418;SDS011;10870;51.384;10.316;2023-02-11T11:30:10;43.50;;;25.25;;
21418;SDS011;10870;51.384;10.316;2023-02-11T11:32:28;45.33;;;26.95;;
21418;SDS011;10870;51.384;10.316;2023-02-11T11:34:37;45.45;;;23.77;;
21418;SDS011;10870;51.384;10.316;2023-02-11T11:36:39;38.67;;;22.33;;
21418;SDS011;10870;51.384;10.316;2023-02-11T11:43:26;40.38;;;26.40;;
21418;SDS011;10870;51.384;10.316;2023-02-11T11:45:27;43.92;;;25.27;;
21418;SDS011;10870;51.384;10.316;2023-02-11T11:54:36;46.97;;;25.75;;
21418;SDS011;10870;51.384;10.316;2023-02-11T11:56:41;46.03;;;26.92;;
21418;SDS011;10870;51.384;10.316;2023-02-11T11:58:50;45.17;;;22.55;;
21418;SDS011;10870;51.384;10.316;2023-02-11T12:00:57;52.25;;;28.67;;
21418;SDS011;10870;51.384;10.316;2023-02-11T12:05:25;47.40;;;26.00;;
21418;SDS011;10870;51.384;10.316;2023-02-11T12:07:39;48.90;;;24.67;;
21418;SDS011;10870;51.384;10.316;2023-02-11T12:09:48;47.33;;;25.30;;
21418;SDS011;10870;51.384;10.316;2023-02-11T12:14:06;49.47;;;27.85;;
21418;SDS011;10870;51.384;10.316;2023-02-11T12:18:29;47.67;;;25.35;;
21418;SDS011;10870;51.384;10.316;2023-02-11T12:23:04;48.25;;;25.33;;
21418;SDS011;10870;51.384;10.316;2023-02-11T12:25:33;52.47;;;27.15;;
21418;SDS011;10870;51.384;10.316;2023-02-11T12:30:46;44.88;;;22.60;;
21418;SDS011;10870;51.384;10.316;2023-02-11T12:34:39;46.17;;;23.80;;
21418;SDS011;10870;51.384;10.316;2023-02-11T12:39:01;47.55;;;26.88;;
21418;SDS011;10870;51.384;10.316;2023-02-11T12:41:13;54.42;;;27.98;;
21418;SDS011;10870;51.384;10.316;2023-02-11T12:54:17;51.72;;;30.60;;
21418;SDS011;10870;51.384;10.316;2023-02-11T12:56:23;54.00;;;27.23;;
21418;SDS011;10870;51.384;10.316;2023-02-11T12:58:30;57.50;;;29.35;;
21418;SDS011;10870;51.384;10.316;2023-02-11T13:00:41;55.10;;;30.75;;
21418;SDS011;10870;51.384;10.316;2023-02-11T13:04:51;55.13;;;28.90;;
21418;SDS011;10870;51.384;10.316;2023-02-11T13:06:57;51.22;;;29.05;;
21418;SDS011;10870;51.384;10.316;2023-02-11T13:09:05;54.25;;;28.67;;
21418;SDS011;10870;51.384;10.316;2023-02-11T13:11:20;59.72;;;31.70;;
21418;SDS011;10870;51.384;10.316;2023-02-11T13:13:38;53.35;;;28.80;;
21418;SDS011;10870;51.384;10.316;2023-02-11T13:15:57;53.05;;;29.33;;
21418;SDS011;10870;51.384;10.316;2023-02-11T13:20:35;55.80;;;30.88;;
21418;SDS011;10870;51.384;10.316;2023-02-11T13:22:37;55.17;;;28.10;;
21418;SDS011;10870;51.384;10.316;2023-02-11T13:24:54;57.28;;;32.25;;
21418;SDS011;10870;51.384;10.316;2023-02-11T13:34:52;61.97;;;31.83;;
21418;SDS011;10870;51.384;10.316;2023-02-11T13:36:52;58.67;;;32.25;;
21418;SDS011;10870;51.384;10.316;2023-02-11T13:39:03;67.63;;;33.10;;
21418;SDS011;10870;51.384;10.316;2023-02-11T13:43:20;57.53;;;29.38;;
21418;SDS011;10870;51.384;10.316;2023-02-11T13:45:27;68.30;;;34.33;;